Britney Lee — WDC2895 — position and weather

sailwx.info

Track history (hours):
 
Tides and Currents Weather Stations Pressure Air Temp Water Temp Dewpoint Dewpoint Depression Visibility Wind Speed Wind Dir Waves Ship Positions

Britney Lee

Owner: Western Rivers Boat Management, Inc., Paducah, KY. More information available from US FCC via Universal Licensing System and Coast Guard Vessel Documentation Center.

Last reported at 2015-May-23 04:33 UTC. Time now 2015-May-24 05:13 UTC.
Position N 30°44' W 091°31'.

Length 44 m.

Type: Tow > 200 m length. MMSI: 367129650.

Date/timePositionNaut miles runAvg speedWind from/ knotsBaromVisibWave heightAir tempDewpointWater temp
2015-May-23 04:33N 30°44' W 091°31'6 4.3
2015-May-23 03:14N 30°45' W 091°24'3 3.9
2015-May-23 02:30N 30°44' W 091°21'4 4.7
2015-May-23 01:33N 30°40' W 091°19'4 3.7
2015-May-23 00:33N 30°36' W 091°18'3 3.3
2015-May-22 23:33N 30°34' W 091°15'3 3.2
2015-May-22 22:34N 30°31' W 091°17'3 2.6
2015-May-22 21:34N 30°31' W 091°14'3 3.3
2015-May-22 20:34N 30°28' W 091°12'4 4.4
2015-May-22 19:33N 30°24' W 091°12'0 0.2
2015-May-22 18:31N 30°24' W 091°13'0 0.0
2015-May-22 17:17N 30°24' W 091°13'0 0.0
2015-May-22 16:33N 30°24' W 091°13'3 2.0
2015-May-22 15:03N 30°21' W 091°12'2 4.3
2015-May-22 14:30N 30°20' W 091°09'2 2.0
2015-May-22 13:32N 30°19' W 091°11'  
2015-May-20 00:24N 30°06' W 090°55'14 0.3
2015-May-18 07:21N 30°15' W 091°07'7 5.5
2015-May-18 06:05N 30°19' W 091°13'4 6.8
2015-May-18 05:28N 30°19' W 091°09'5 5.5
2015-May-18 04:33N 30°21' W 091°14'4 3.7
2015-May-18 03:33N 30°24' W 091°12'0 0.2
2015-May-18 02:33N 30°24' W 091°12'0 0.0
2015-May-18 01:33N 30°24' W 091°12'0 0.2
2015-May-18 00:33N 30°24' W 091°12'0 0.0
2015-May-17 23:33N 30°24' W 091°12'3 3.2
2015-May-17 22:33N 30°27' W 091°12'4 4.0
2015-May-17 21:33N 30°31' W 091°15'1 1.1
2015-May-17 20:33N 30°32' W 091°15'5 5.2
2015-May-17 19:33N 30°36' W 091°19'6 5.8
2015-May-17 18:33N 30°41' W 091°21'  
Track history (hours):
 
Tides and Currents Weather Stations Pressure Air Temp Water Temp Dewpoint Dewpoint Depression Visibility Wind Speed Wind Dir Waves Ship Positions

Britney Lee

Owner: Western Rivers Boat Management, Inc., Paducah, KY. More information available from US FCC via Universal Licensing System and Coast Guard Vessel Documentation Center.

Last reported at 2015-May-23 04:33 UTC. Time now 2015-May-24 05:13 UTC.
Position N 30°44' W 091°31'.

Length 44 m.

Type: Tow > 200 m length. MMSI: 367129650.

Date/timePositionNaut miles runAvg speedWind from/ knotsBaromVisibWave heightAir tempDewpointWater temp
2015-May-23 04:33N 30°44' W 091°31'6 4.3
2015-May-23 03:14N 30°45' W 091°24'3 3.9
2015-May-23 02:30N 30°44' W 091°21'4 4.7
2015-May-23 01:33N 30°40' W 091°19'4 3.7
2015-May-23 00:33N 30°36' W 091°18'3 3.3
2015-May-22 23:33N 30°34' W 091°15'3 3.2
2015-May-22 22:34N 30°31' W 091°17'3 2.6
2015-May-22 21:34N 30°31' W 091°14'3 3.3
2015-May-22 20:34N 30°28' W 091°12'4 4.4
2015-May-22 19:33N 30°24' W 091°12'0 0.2
2015-May-22 18:31N 30°24' W 091°13'0 0.0
2015-May-22 17:17N 30°24' W 091°13'0 0.0
2015-May-22 16:33N 30°24' W 091°13'3 2.0
2015-May-22 15:03N 30°21' W 091°12'2 4.3
2015-May-22 14:30N 30°20' W 091°09'2 2.0
2015-May-22 13:32N 30°19' W 091°11'  
2015-May-20 00:24N 30°06' W 090°55'14 0.3
2015-May-18 07:21N 30°15' W 091°07'7 5.5
2015-May-18 06:05N 30°19' W 091°13'4 6.8
2015-May-18 05:28N 30°19' W 091°09'5 5.5
2015-May-18 04:33N 30°21' W 091°14'4 3.7
2015-May-18 03:33N 30°24' W 091°12'0 0.2
2015-May-18 02:33N 30°24' W 091°12'0 0.0
2015-May-18 01:33N 30°24' W 091°12'0 0.2
2015-May-18 00:33N 30°24' W 091°12'0 0.0
2015-May-17 23:33N 30°24' W 091°12'3 3.2
2015-May-17 22:33N 30°27' W 091°12'4 4.0
2015-May-17 21:33N 30°31' W 091°15'1 1.1
2015-May-17 20:33N 30°32' W 091°15'5 5.2
2015-May-17 19:33N 30°36' W 091°19'6 5.8
2015-May-17 18:33N 30°41' W 091°21'  

Dump ship's entire track history